sensor_id;sensor_type;location;lat;lon;timestamp;P1;durP1;ratioP1;P2;durP2;ratioP2
823;SDS011;373;49.342;8.146;2023-11-19T00:00:16;1.40;;;1.30;;
823;SDS011;373;49.342;8.146;2023-11-19T00:02:45;2.97;;;1.70;;
823;SDS011;373;49.342;8.146;2023-11-19T00:05:21;2.88;;;1.45;;
823;SDS011;373;49.342;8.146;2023-11-19T00:07:57;1.52;;;1.42;;
823;SDS011;373;49.342;8.146;2023-11-19T00:10:28;1.50;;;1.40;;
823;SDS011;373;49.342;8.146;2023-11-19T00:12:55;1.77;;;1.67;;
823;SDS011;373;49.342;8.146;2023-11-19T00:15:25;1.48;;;1.25;;
823;SDS011;373;49.342;8.146;2023-11-19T00:17:53;2.35;;;2.15;;
823;SDS011;373;49.342;8.146;2023-11-19T00:20:20;1.70;;;1.40;;
823;SDS011;373;49.342;8.146;2023-11-19T00:22:49;1.40;;;1.30;;
823;SDS011;373;49.342;8.146;2023-11-19T00:25:17;0.30;;;0.30;;
823;SDS011;373;49.342;8.146;2023-11-19T00:27:45;1.20;;;0.30;;
823;SDS011;373;49.342;8.146;2023-11-19T00:30:14;0.45;;;0.45;;
823;SDS011;373;49.342;8.146;2023-11-19T00:32:57;0.40;;;0.40;;
823;SDS011;373;49.342;8.146;2023-11-19T00:35:26;1.10;;;0.20;;
823;SDS011;373;49.342;8.146;2023-11-19T00:37:55;0.13;;;0.13;;
823;SDS011;373;49.342;8.146;2023-11-19T00:40:23;0.10;;;0.10;;
823;SDS011;373;49.342;8.146;2023-11-19T00:42:54;0.20;;;0.10;;
823;SDS011;373;49.342;8.146;2023-11-19T00:45:21;0.60;;;0.20;;
823;SDS011;373;49.342;8.146;2023-11-19T00:47:49;0.20;;;0.20;;
823;SDS011;373;49.342;8.146;2023-11-19T00:50:20;0.40;;;0.30;;
823;SDS011;373;49.342;8.146;2023-11-19T00:52:50;0.32;;;0.30;;
823;SDS011;373;49.342;8.146;2023-11-19T00:55:21;0.20;;;0.20;;
823;SDS011;373;49.342;8.146;2023-11-19T00:57:53;0.10;;;0.08;;
823;SDS011;373;49.342;8.146;2023-11-19T01:00:31;0.40;;;0.22;;
823;SDS011;373;49.342;8.146;2023-11-19T01:03:07;0.05;;;0.05;;
823;SDS011;373;49.342;8.146;2023-11-19T01:05:50;0.20;;;0.20;;
823;SDS011;373;49.342;8.146;2023-11-19T01:08:34;0.20;;;0.20;;
823;SDS011;373;49.342;8.146;2023-11-19T01:11:19;0.13;;;0.10;;
823;SDS011;373;49.342;8.146;2023-11-19T01:13:47;0.25;;;0.00;;
823;SDS011;373;49.342;8.146;2023-11-19T01:16:19;0.88;;;0.20;;
823;SDS011;373;49.342;8.146;2023-11-19T01:18:49;0.73;;;0.10;;
823;SDS011;373;49.342;8.146;2023-11-19T01:21:18;0.10;;;0.10;;
823;SDS011;373;49.342;8.146;2023-11-19T01:23:47;0.30;;;0.30;;
823;SDS011;373;49.342;8.146;2023-11-19T01:26:16;0.85;;;0.22;;
823;SDS011;373;49.342;8.146;2023-11-19T01:28:51;0.20;;;0.10;;
823;SDS011;373;49.342;8.146;2023-11-19T01:31:24;0.10;;;0.10;;
823;SDS011;373;49.342;8.146;2023-11-19T01:33:59;0.15;;;0.10;;
823;SDS011;373;49.342;8.146;2023-11-19T01:36:29;0.00;;;0.00;;
823;SDS011;373;49.342;8.146;2023-11-19T01:38:59;0.10;;;0.10;;
823;SDS011;373;49.342;8.146;2023-11-19T01:41:27;0.10;;;0.10;;
823;SDS011;373;49.342;8.146;2023-11-19T01:43:54;0.00;;;0.00;;
823;SDS011;373;49.342;8.146;2023-11-19T01:46:21;0.00;;;0.00;;
823;SDS011;373;49.342;8.146;2023-11-19T01:48:49;1.35;;;0.10;;
823;SDS011;373;49.342;8.146;2023-11-19T01:51:23;0.22;;;0.00;;
823;SDS011;373;49.342;8.146;2023-11-19T01:53:56;0.10;;;0.10;;
823;SDS011;373;49.342;8.146;2023-11-19T01:56:24;0.38;;;0.30;;
823;SDS011;373;49.342;8.146;2023-11-19T01:58:55;0.10;;;0.10;;
823;SDS011;373;49.342;8.146;2023-11-19T02:01:23;0.70;;;0.00;;
823;SDS011;373;49.342;8.146;2023-11-19T02:03:50;0.22;;;0.20;;
823;SDS011;373;49.342;8.146;2023-11-19T02:06:23;0.20;;;0.17;;
823;SDS011;373;49.342;8.146;2023-11-19T02:08:55;0.10;;;0.10;;
823;SDS011;373;49.342;8.146;2023-11-19T02:11:25;0.30;;;0.30;;
823;SDS011;373;49.342;8.146;2023-11-19T02:13:54;0.47;;;0.20;;
823;SDS011;373;49.342;8.146;2023-11-19T02:16:25;0.20;;;0.20;;
823;SDS011;373;49.342;8.146;2023-11-19T02:18:53;0.10;;;0.10;;
823;SDS011;373;49.342;8.146;2023-11-19T02:21:22;0.10;;;0.10;;
823;SDS011;373;49.342;8.146;2023-11-19T02:23:49;0.20;;;0.20;;
823;SDS011;373;49.342;8.146;2023-11-19T02:26:23;0.28;;;0.17;;
823;SDS011;373;49.342;8.146;2023-11-19T02:29:00;0.20;;;0.20;;
823;SDS011;373;49.342;8.146;2023-11-19T02:31:31;1.98;;;0.28;;
823;SDS011;373;49.342;8.146;2023-11-19T02:34:01;0.38;;;0.22;;
823;SDS011;373;49.342;8.146;2023-11-19T02:36:28;0.20;;;0.20;;
823;SDS011;373;49.342;8.146;2023-11-19T02:38:59;0.20;;;0.20;;
823;SDS011;373;49.342;8.146;2023-11-19T02:41:28;0.20;;;0.20;;
823;SDS011;373;49.342;8.146;2023-11-19T02:43:55;0.40;;;0.40;;
823;SDS011;373;49.342;8.146;2023-11-19T02:46:26;0.30;;;0.28;;
823;SDS011;373;49.342;8.146;2023-11-19T02:48:53;0.95;;;0.40;;
823;SDS011;373;49.342;8.146;2023-11-19T02:51:20;0.20;;;0.20;;
823;SDS011;373;49.342;8.146;2023-11-19T02:53:47;0.20;;;0.20;;
823;SDS011;373;49.342;8.146;2023-11-19T02:56:15;0.98;;;0.20;;
823;SDS011;373;49.342;8.146;2023-11-19T02:58:45;0.35;;;0.20;;
823;SDS011;373;49.342;8.146;2023-11-19T03:01:21;0.10;;;0.10;;
823;SDS011;373;49.342;8.146;2023-11-19T03:03:56;0.70;;;0.30;;
823;SDS011;373;49.342;8.146;2023-11-19T03:06:24;0.10;;;0.10;;
823;SDS011;373;49.342;8.146;2023-11-19T03:08:52;0.20;;;0.20;;
823;SDS011;373;49.342;8.146;2023-11-19T03:11:19;0.45;;;0.45;;
823;SDS011;373;49.342;8.146;2023-11-19T03:13:47;0.30;;;0.30;;
823;SDS011;373;49.342;8.146;2023-11-19T03:16:14;0.38;;;0.38;;
823;SDS011;373;49.342;8.146;2023-11-19T03:18:42;0.57;;;0.40;;
823;SDS011;373;49.342;8.146;2023-11-19T03:21:10;0.30;;;0.30;;
823;SDS011;373;49.342;8.146;2023-11-19T03:23:44;0.40;;;0.38;;
823;SDS011;373;49.342;8.146;2023-11-19T03:26:11;0.30;;;0.30;;
823;SDS011;373;49.342;8.146;2023-11-19T03:28:38;0.45;;;0.45;;
823;SDS011;373;49.342;8.146;2023-11-19T03:31:05;1.40;;;0.40;;
823;SDS011;373;49.342;8.146;2023-11-19T03:33:34;1.42;;;0.73;;
823;SDS011;373;49.342;8.146;2023-11-19T03:36:02;0.30;;;0.30;;
823;SDS011;373;49.342;8.146;2023-11-19T03:38:33;0.43;;;0.43;;
823;SDS011;373;49.342;8.146;2023-11-19T03:41:00;4.38;;;0.50;;
823;SDS011;373;49.342;8.146;2023-11-19T03:43:28;0.50;;;0.50;;
823;SDS011;373;49.342;8.146;2023-11-19T03:46:01;0.10;;;0.10;;
823;SDS011;373;49.342;8.146;2023-11-19T03:48:30;0.50;;;0.40;;
823;SDS011;373;49.342;8.146;2023-11-19T03:50:57;1.55;;;0.43;;
823;SDS011;373;49.342;8.146;2023-11-19T03:53:24;0.30;;;0.17;;
823;SDS011;373;49.342;8.146;2023-11-19T03:55:53;0.30;;;0.20;;
823;SDS011;373;49.342;8.146;2023-11-19T03:58:20;0.20;;;0.20;;
823;SDS011;373;49.342;8.146;2023-11-19T04:00:47;0.30;;;0.25;;
823;SDS011;373;49.342;8.146;2023-11-19T04:03:14;0.20;;;0.20;;
823;SDS011;373;49.342;8.146;2023-11-19T04:05:41;0.30;;;0.30;;
823;SDS011;373;49.342;8.146;2023-11-19T04:08:09;0.40;;;0.40;;
823;SDS011;373;49.342;8.146;2023-11-19T04:10:36;0.52;;;0.35;;
823;SDS011;373;49.342;8.146;2023-11-19T04:13:05;0.47;;;0.32;;
823;SDS011;373;49.342;8.146;2023-11-19T04:15:32;0.40;;;0.30;;
823;SDS011;373;49.342;8.146;2023-11-19T04:17:59;0.63;;;0.40;;
823;SDS011;373;49.342;8.146;2023-11-19T04:20:26;0.50;;;0.40;;
823;SDS011;373;49.342;8.146;2023-11-19T04:22:55;0.85;;;0.38;;
823;SDS011;373;49.342;8.146;2023-11-19T04:25:22;0.50;;;0.40;;
823;SDS011;373;49.342;8.146;2023-11-19T04:27:51;0.45;;;0.40;;
823;SDS011;373;49.342;8.146;2023-11-19T04:30:19;1.10;;;0.65;;
823;SDS011;373;49.342;8.146;2023-11-19T04:32:48;0.98;;;0.50;;
823;SDS011;373;49.342;8.146;2023-11-19T04:35:15;0.77;;;0.50;;
823;SDS011;373;49.342;8.146;2023-11-19T04:37:44;4.35;;;0.52;;
823;SDS011;373;49.342;8.146;2023-11-19T04:40:13;0.55;;;0.40;;
823;SDS011;373;49.342;8.146;2023-11-19T04:42:40;1.95;;;0.52;;
823;SDS011;373;49.342;8.146;2023-11-19T04:45:07;0.50;;;0.50;;
823;SDS011;373;49.342;8.146;2023-11-19T04:47:37;1.33;;;0.60;;
823;SDS011;373;49.342;8.146;2023-11-19T04:50:04;0.55;;;0.52;;
823;SDS011;373;49.342;8.146;2023-11-19T04:52:32;1.27;;;0.50;;
823;SDS011;373;49.342;8.146;2023-11-19T04:54:59;0.63;;;0.50;;
823;SDS011;373;49.342;8.146;2023-11-19T04:57:25;0.80;;;0.60;;
823;SDS011;373;49.342;8.146;2023-11-19T04:59:53;0.60;;;0.60;;
823;SDS011;373;49.342;8.146;2023-11-19T05:02:20;0.85;;;0.50;;
823;SDS011;373;49.342;8.146;2023-11-19T05:04:51;0.60;;;0.60;;
823;SDS011;373;49.342;8.146;2023-11-19T05:07:18;0.95;;;0.65;;
823;SDS011;373;49.342;8.146;2023-11-19T05:09:45;1.55;;;1.02;;
823;SDS011;373;49.342;8.146;2023-11-19T05:12:13;0.50;;;0.50;;
823;SDS011;373;49.342;8.146;2023-11-19T05:14:40;2.30;;;0.70;;
823;SDS011;373;49.342;8.146;2023-11-19T05:17:13;0.65;;;0.50;;
823;SDS011;373;49.342;8.146;2023-11-19T05:19:40;0.82;;;0.60;;
823;SDS011;373;49.342;8.146;2023-11-19T05:22:08;0.88;;;0.40;;
823;SDS011;373;49.342;8.146;2023-11-19T05:24:35;0.57;;;0.50;;
823;SDS011;373;49.342;8.146;2023-11-19T05:27:03;1.33;;;0.63;;
823;SDS011;373;49.342;8.146;2023-11-19T05:29:30;0.80;;;0.50;;
823;SDS011;373;49.342;8.146;2023-11-19T05:31:57;0.85;;;0.60;;
823;SDS011;373;49.342;8.146;2023-11-19T05:34:24;1.92;;;0.73;;
823;SDS011;373;49.342;8.146;2023-11-19T05:36:51;0.68;;;0.68;;
823;SDS011;373;49.342;8.146;2023-11-19T05:39:20;1.27;;;0.68;;
823;SDS011;373;49.342;8.146;2023-11-19T05:41:47;0.47;;;0.47;;
823;SDS011;373;49.342;8.146;2023-11-19T05:44:14;1.75;;;0.68;;
823;SDS011;373;49.342;8.146;2023-11-19T05:46:41;0.80;;;0.55;;
823;SDS011;373;49.342;8.146;2023-11-19T05:49:09;0.65;;;0.50;;
823;SDS011;373;49.342;8.146;2023-11-19T05:51:37;0.47;;;0.45;;
823;SDS011;373;49.342;8.146;2023-11-19T05:54:04;0.50;;;0.50;;
823;SDS011;373;49.342;8.146;2023-11-19T05:56:36;2.03;;;0.50;;
823;SDS011;373;49.342;8.146;2023-11-19T05:59:03;0.85;;;0.57;;
823;SDS011;373;49.342;8.146;2023-11-19T06:01:32;0.52;;;0.50;;
823;SDS011;373;49.342;8.146;2023-11-19T06:04:00;0.73;;;0.57;;
823;SDS011;373;49.342;8.146;2023-11-19T06:06:27;0.88;;;0.43;;
823;SDS011;373;49.342;8.146;2023-11-19T06:08:55;1.50;;;0.50;;
823;SDS011;373;49.342;8.146;2023-11-19T06:11:22;0.60;;;0.40;;
823;SDS011;373;49.342;8.146;2023-11-19T06:13:53;1.08;;;0.57;;
823;SDS011;373;49.342;8.146;2023-11-19T06:16:21;0.88;;;0.45;;
823;SDS011;373;49.342;8.146;2023-11-19T06:18:49;1.08;;;0.40;;
823;SDS011;373;49.342;8.146;2023-11-19T06:21:16;1.25;;;0.77;;
823;SDS011;373;49.342;8.146;2023-11-19T06:23:43;0.80;;;0.80;;
823;SDS011;373;49.342;8.146;2023-11-19T06:26:10;0.80;;;0.70;;
823;SDS011;373;49.342;8.146;2023-11-19T06:28:37;2.40;;;0.70;;
823;SDS011;373;49.342;8.146;2023-11-19T06:31:06;1.67;;;0.57;;
823;SDS011;373;49.342;8.146;2023-11-19T06:33:33;0.63;;;0.63;;
823;SDS011;373;49.342;8.146;2023-11-19T06:36:00;2.42;;;0.60;;
823;SDS011;373;49.342;8.146;2023-11-19T06:38:27;1.65;;;0.70;;
823;SDS011;373;49.342;8.146;2023-11-19T06:40:54;2.58;;;0.80;;
823;SDS011;373;49.342;8.146;2023-11-19T06:43:21;1.63;;;0.80;;
823;SDS011;373;49.342;8.146;2023-11-19T06:45:51;1.23;;;0.80;;
823;SDS011;373;49.342;8.146;2023-11-19T06:48:20;2.03;;;0.68;;
823;SDS011;373;49.342;8.146;2023-11-19T06:50:47;1.05;;;0.85;;
823;SDS011;373;49.342;8.146;2023-11-19T06:53:14;3.75;;;1.38;;
823;SDS011;373;49.342;8.146;2023-11-19T06:55:44;1.48;;;0.75;;
823;SDS011;373;49.342;8.146;2023-11-19T06:58:11;4.22;;;0.90;;
823;SDS011;373;49.342;8.146;2023-11-19T07:00:38;1.30;;;0.82;;
823;SDS011;373;49.342;8.146;2023-11-19T07:03:06;1.45;;;0.85;;
823;SDS011;373;49.342;8.146;2023-11-19T07:05:37;2.25;;;0.70;;
823;SDS011;373;49.342;8.146;2023-11-19T07:08:05;0.75;;;0.47;;
823;SDS011;373;49.342;8.146;2023-11-19T07:10:33;1.58;;;0.82;;
823;SDS011;373;49.342;8.146;2023-11-19T07:13:00;0.93;;;0.77;;
823;SDS011;373;49.342;8.146;2023-11-19T07:15:27;1.27;;;0.63;;
823;SDS011;373;49.342;8.146;2023-11-19T07:17:57;1.85;;;0.52;;
823;SDS011;373;49.342;8.146;2023-11-19T07:20:25;0.65;;;0.30;;
823;SDS011;373;49.342;8.146;2023-11-19T07:22:55;0.52;;;0.22;;
823;SDS011;373;49.342;8.146;2023-11-19T07:25:23;0.93;;;0.50;;
823;SDS011;373;49.342;8.146;2023-11-19T07:27:51;1.35;;;0.30;;
823;SDS011;373;49.342;8.146;2023-11-19T07:30:19;0.20;;;0.20;;
823;SDS011;373;49.342;8.146;2023-11-19T07:32:46;0.30;;;0.30;;
823;SDS011;373;49.342;8.146;2023-11-19T07:35:13;0.73;;;0.40;;
823;SDS011;373;49.342;8.146;2023-11-19T07:37:41;1.42;;;0.30;;
823;SDS011;373;49.342;8.146;2023-11-19T07:40:13;0.63;;;0.50;;
823;SDS011;373;49.342;8.146;2023-11-19T07:42:43;1.00;;;0.45;;
823;SDS011;373;49.342;8.146;2023-11-19T07:45:11;1.48;;;0.75;;
823;SDS011;373;49.342;8.146;2023-11-19T07:47:38;1.02;;;0.57;;
823;SDS011;373;49.342;8.146;2023-11-19T07:50:06;0.60;;;0.60;;
823;SDS011;373;49.342;8.146;2023-11-19T07:52:35;2.08;;;0.60;;
823;SDS011;373;49.342;8.146;2023-11-19T07:55:02;0.90;;;0.55;;
823;SDS011;373;49.342;8.146;2023-11-19T07:57:32;2.25;;;0.80;;
823;SDS011;373;49.342;8.146;2023-11-19T08:00:02;1.90;;;1.02;;
823;SDS011;373;49.342;8.146;2023-11-19T08:02:38;2.20;;;0.95;;
823;SDS011;373;49.342;8.146;2023-11-19T08:05:07;0.70;;;0.60;;
823;SDS011;373;49.342;8.146;2023-11-19T08:07:34;1.35;;;0.70;;
823;SDS011;373;49.342;8.146;2023-11-19T08:10:01;1.95;;;0.60;;
823;SDS011;373;49.342;8.146;2023-11-19T08:12:31;1.25;;;0.60;;
823;SDS011;373;49.342;8.146;2023-11-19T08:15:00;0.60;;;0.60;;
823;SDS011;373;49.342;8.146;2023-11-19T08:17:28;2.13;;;1.20;;
823;SDS011;373;49.342;8.146;2023-11-19T08:19:55;1.50;;;0.90;;
823;SDS011;373;49.342;8.146;2023-11-19T08:22:22;2.20;;;2.10;;
823;SDS011;373;49.342;8.146;2023-11-19T08:24:49;1.85;;;1.73;;
823;SDS011;373;49.342;8.146;2023-11-19T08:27:16;1.95;;;1.23;;
823;SDS011;373;49.342;8.146;2023-11-19T08:29:45;2.65;;;1.40;;
823;SDS011;373;49.342;8.146;2023-11-19T08:32:12;2.33;;;1.25;;
823;SDS011;373;49.342;8.146;2023-11-19T08:34:39;1.55;;;0.90;;
823;SDS011;373;49.342;8.146;2023-11-19T08:37:06;2.08;;;0.60;;
823;SDS011;373;49.342;8.146;2023-11-19T08:39:33;3.00;;;0.77;;
823;SDS011;373;49.342;8.146;2023-11-19T08:42:00;2.00;;;0.70;;
823;SDS011;373;49.342;8.146;2023-11-19T08:44:27;0.93;;;0.60;;
823;SDS011;373;49.342;8.146;2023-11-19T08:46:55;0.82;;;0.80;;
823;SDS011;373;49.342;8.146;2023-11-19T08:49:22;1.75;;;0.90;;
823;SDS011;373;49.342;8.146;2023-11-19T08:51:50;1.75;;;0.70;;
823;SDS011;373;49.342;8.146;2023-11-19T08:54:17;3.45;;;1.15;;
823;SDS011;373;49.342;8.146;2023-11-19T08:56:45;2.28;;;0.70;;
823;SDS011;373;49.342;8.146;2023-11-19T08:59:16;2.05;;;0.90;;
823;SDS011;373;49.342;8.146;2023-11-19T09:01:44;1.92;;;0.90;;
823;SDS011;373;49.342;8.146;2023-11-19T09:04:12;2.80;;;0.95;;
823;SDS011;373;49.342;8.146;2023-11-19T09:06:41;2.85;;;0.70;;
823;SDS011;373;49.342;8.146;2023-11-19T09:09:09;2.30;;;0.85;;
823;SDS011;373;49.342;8.146;2023-11-19T09:11:36;3.63;;;1.00;;
823;SDS011;373;49.342;8.146;2023-11-19T09:14:03;1.13;;;0.80;;
823;SDS011;373;49.342;8.146;2023-11-19T09:16:30;1.60;;;1.13;;
823;SDS011;373;49.342;8.146;2023-11-19T09:18:57;1.15;;;0.80;;
823;SDS011;373;49.342;8.146;2023-11-19T09:21:26;1.92;;;0.65;;
823;SDS011;373;49.342;8.146;2023-11-19T09:23:54;1.13;;;0.75;;
823;SDS011;373;49.342;8.146;2023-11-19T09:26:22;2.13;;;0.73;;
823;SDS011;373;49.342;8.146;2023-11-19T09:28:49;2.85;;;0.85;;
823;SDS011;373;49.342;8.146;2023-11-19T09:31:18;1.33;;;0.50;;
823;SDS011;373;49.342;8.146;2023-11-19T09:33:46;0.80;;;0.60;;
823;SDS011;373;49.342;8.146;2023-11-19T09:36:13;0.98;;;0.52;;
823;SDS011;373;49.342;8.146;2023-11-19T09:38:43;1.58;;;0.55;;
823;SDS011;373;49.342;8.146;2023-11-19T09:41:10;1.25;;;0.73;;
823;SDS011;373;49.342;8.146;2023-11-19T09:43:39;2.08;;;1.08;;
823;SDS011;373;49.342;8.146;2023-11-19T09:46:06;1.45;;;0.73;;
823;SDS011;373;49.342;8.146;2023-11-19T09:48:37;2.50;;;0.57;;
823;SDS011;373;49.342;8.146;2023-11-19T09:51:05;0.52;;;0.52;;
823;SDS011;373;49.342;8.146;2023-11-19T09:53:33;2.63;;;0.55;;
823;SDS011;373;49.342;8.146;2023-11-19T09:56:03;1.08;;;0.43;;
823;SDS011;373;49.342;8.146;2023-11-19T09:58:31;1.50;;;0.75;;
823;SDS011;373;49.342;8.146;2023-11-19T10:00:58;0.93;;;0.60;;
823;SDS011;373;49.342;8.146;2023-11-19T10:03:28;1.88;;;1.00;;
823;SDS011;373;49.342;8.146;2023-11-19T10:05:59;0.88;;;0.57;;
823;SDS011;373;49.342;8.146;2023-11-19T10:08:27;2.75;;;0.60;;
823;SDS011;373;49.342;8.146;2023-11-19T10:10:54;2.20;;;0.75;;
823;SDS011;373;49.342;8.146;2023-11-19T10:13:27;0.65;;;0.52;;
823;SDS011;373;49.342;8.146;2023-11-19T10:15:55;1.92;;;0.55;;
823;SDS011;373;49.342;8.146;2023-11-19T10:18:24;1.27;;;0.63;;
823;SDS011;373;49.342;8.146;2023-11-19T10:20:52;1.88;;;0.60;;
823;SDS011;373;49.342;8.146;2023-11-19T10:23:20;1.17;;;0.60;;
823;SDS011;373;49.342;8.146;2023-11-19T10:25:47;1.52;;;0.93;;
823;SDS011;373;49.342;8.146;2023-11-19T10:28:14;0.77;;;0.50;;
823;SDS011;373;49.342;8.146;2023-11-19T10:30:44;1.77;;;0.82;;
823;SDS011;373;49.342;8.146;2023-11-19T10:33:14;0.77;;;0.70;;
823;SDS011;373;49.342;8.146;2023-11-19T10:35:52;1.40;;;0.63;;
823;SDS011;373;49.342;8.146;2023-11-19T10:38:21;0.60;;;0.60;;
823;SDS011;373;49.342;8.146;2023-11-19T10:40:49;2.50;;;0.65;;
823;SDS011;373;49.342;8.146;2023-11-19T10:43:17;1.33;;;0.47;;
823;SDS011;373;49.342;8.146;2023-11-19T10:45:46;1.92;;;0.80;;
823;SDS011;373;49.342;8.146;2023-11-19T10:48:13;1.10;;;0.63;;
823;SDS011;373;49.342;8.146;2023-11-19T10:50:40;0.77;;;0.45;;
823;SDS011;373;49.342;8.146;2023-11-19T10:53:08;1.52;;;0.73;;
823;SDS011;373;49.342;8.146;2023-11-19T10:55:39;1.73;;;0.70;;
823;SDS011;373;49.342;8.146;2023-11-19T10:58:06;1.05;;;0.68;;
823;SDS011;373;49.342;8.146;2023-11-19T11:00:37;0.73;;;0.50;;
823;SDS011;373;49.342;8.146;2023-11-19T11:03:10;0.88;;;0.70;;
823;SDS011;373;49.342;8.146;2023-11-19T11:05:46;2.60;;;0.55;;
823;SDS011;373;49.342;8.146;2023-11-19T11:08:14;1.90;;;0.75;;
823;SDS011;373;49.342;8.146;2023-11-19T11:10:42;1.40;;;0.70;;
823;SDS011;373;49.342;8.146;2023-11-19T11:13:11;1.35;;;0.80;;
823;SDS011;373;49.342;8.146;2023-11-19T11:15:40;1.70;;;0.70;;
823;SDS011;373;49.342;8.146;2023-11-19T11:18:08;1.85;;;0.50;;
823;SDS011;373;49.342;8.146;2023-11-19T11:20:36;0.60;;;0.52;;
823;SDS011;373;49.342;8.146;2023-11-19T11:23:11;2.20;;;0.88;;
823;SDS011;373;49.342;8.146;2023-11-19T11:25:59;1.60;;;0.63;;
823;SDS011;373;49.342;8.146;2023-11-19T11:28:46;0.77;;;0.47;;
823;SDS011;373;49.342;8.146;2023-11-19T11:31:26;2.42;;;0.60;;
823;SDS011;373;49.342;8.146;2023-11-19T11:34:12;1.67;;;0.95;;
823;SDS011;373;49.342;8.146;2023-11-19T11:37:06;0.95;;;0.50;;
823;SDS011;373;49.342;8.146;2023-11-19T11:39:39;1.25;;;0.50;;
823;SDS011;373;49.342;8.146;2023-11-19T11:45:00;2.13;;;0.60;;
823;SDS011;373;49.342;8.146;2023-11-19T11:50:46;3.15;;;0.52;;
823;SDS011;373;49.342;8.146;2023-11-19T11:53:16;1.30;;;0.47;;
823;SDS011;373;49.342;8.146;2023-11-19T11:55:56;0.75;;;0.55;;
823;SDS011;373;49.342;8.146;2023-11-19T11:58:26;1.25;;;0.50;;
823;SDS011;373;49.342;8.146;2023-11-19T12:00:57;1.15;;;0.65;;
823;SDS011;373;49.342;8.146;2023-11-19T12:03:27;0.80;;;0.50;;
823;SDS011;373;49.342;8.146;2023-11-19T12:05:57;1.23;;;0.80;;
823;SDS011;373;49.342;8.146;2023-11-19T12:08:25;1.70;;;0.80;;
823;SDS011;373;49.342;8.146;2023-11-19T12:10:54;2.00;;;0.98;;
823;SDS011;373;49.342;8.146;2023-11-19T12:13:23;1.27;;;0.60;;
823;SDS011;373;49.342;8.146;2023-11-19T12:16:07;1.85;;;1.27;;
823;SDS011;373;49.342;8.146;2023-11-19T12:18:34;1.95;;;0.73;;
823;SDS011;373;49.342;8.146;2023-11-19T12:21:03;0.80;;;0.80;;
823;SDS011;373;49.342;8.146;2023-11-19T12:23:31;0.95;;;0.52;;
823;SDS011;373;49.342;8.146;2023-11-19T12:26:00;2.72;;;0.60;;
823;SDS011;373;49.342;8.146;2023-11-19T12:28:29;2.03;;;0.60;;
823;SDS011;373;49.342;8.146;2023-11-19T12:31:07;2.05;;;0.65;;
823;SDS011;373;49.342;8.146;2023-11-19T12:33:35;1.40;;;0.70;;
823;SDS011;373;49.342;8.146;2023-11-19T12:36:04;1.38;;;0.70;;
823;SDS011;373;49.342;8.146;2023-11-19T12:38:33;1.75;;;0.93;;
823;SDS011;373;49.342;8.146;2023-11-19T12:41:03;3.03;;;0.90;;
823;SDS011;373;49.342;8.146;2023-11-19T12:43:30;3.05;;;0.85;;
823;SDS011;373;49.342;8.146;2023-11-19T12:45:59;3.72;;;1.40;;
823;SDS011;373;49.342;8.146;2023-11-19T12:48:26;3.13;;;0.82;;
823;SDS011;373;49.342;8.146;2023-11-19T12:50:53;1.55;;;0.50;;
823;SDS011;373;49.342;8.146;2023-11-19T12:53:24;1.33;;;0.70;;
823;SDS011;373;49.342;8.146;2023-11-19T12:55:52;2.95;;;0.95;;
823;SDS011;373;49.342;8.146;2023-11-19T12:58:30;1.60;;;0.70;;
823;SDS011;373;49.342;8.146;2023-11-19T13:01:01;3.67;;;1.00;;
823;SDS011;373;49.342;8.146;2023-11-19T13:03:29;2.75;;;1.25;;
823;SDS011;373;49.342;8.146;2023-11-19T13:06:01;2.00;;;0.65;;
823;SDS011;373;49.342;8.146;2023-11-19T13:08:36;2.10;;;0.80;;
823;SDS011;373;49.342;8.146;2023-11-19T13:11:05;2.38;;;0.77;;
823;SDS011;373;49.342;8.146;2023-11-19T13:13:32;2.72;;;0.90;;
823;SDS011;373;49.342;8.146;2023-11-19T13:16:01;2.00;;;0.82;;
823;SDS011;373;49.342;8.146;2023-11-19T13:18:30;1.50;;;0.80;;
823;SDS011;373;49.342;8.146;2023-11-19T13:20:58;2.10;;;0.50;;
823;SDS011;373;49.342;8.146;2023-11-19T13:23:25;1.40;;;0.68;;
823;SDS011;373;49.342;8.146;2023-11-19T13:25:53;3.03;;;0.80;;
823;SDS011;373;49.342;8.146;2023-11-19T13:28:20;2.28;;;0.95;;
823;SDS011;373;49.342;8.146;2023-11-19T13:30:47;1.88;;;0.77;;
823;SDS011;373;49.342;8.146;2023-11-19T13:33:15;2.97;;;0.73;;
823;SDS011;373;49.342;8.146;2023-11-19T13:35:42;2.97;;;0.73;;
823;SDS011;373;49.342;8.146;2023-11-19T13:38:09;1.58;;;0.65;;
823;SDS011;373;49.342;8.146;2023-11-19T13:40:36;2.38;;;0.77;;
823;SDS011;373;49.342;8.146;2023-11-19T13:43:05;3.05;;;0.95;;
823;SDS011;373;49.342;8.146;2023-11-19T13:45:33;2.60;;;0.60;;
823;SDS011;373;49.342;8.146;2023-11-19T13:48:00;0.88;;;0.50;;
823;SDS011;373;49.342;8.146;2023-11-19T13:50:27;2.20;;;0.90;;
823;SDS011;373;49.342;8.146;2023-11-19T13:52:54;5.18;;;0.70;;
823;SDS011;373;49.342;8.146;2023-11-19T13:55:21;1.67;;;0.98;;
823;SDS011;373;49.342;8.146;2023-11-19T13:57:49;2.00;;;0.70;;
823;SDS011;373;49.342;8.146;2023-11-19T14:00:17;2.25;;;0.75;;
823;SDS011;373;49.342;8.146;2023-11-19T14:02:45;2.22;;;0.73;;
823;SDS011;373;49.342;8.146;2023-11-19T14:05:15;2.20;;;0.80;;
823;SDS011;373;49.342;8.146;2023-11-19T14:07:43;3.65;;;0.93;;
823;SDS011;373;49.342;8.146;2023-11-19T14:10:17;2.28;;;0.90;;
823;SDS011;373;49.342;8.146;2023-11-19T14:12:44;4.10;;;1.15;;
823;SDS011;373;49.342;8.146;2023-11-19T14:15:11;3.00;;;1.00;;
823;SDS011;373;49.342;8.146;2023-11-19T14:17:40;2.63;;;0.98;;
823;SDS011;373;49.342;8.146;2023-11-19T14:20:07;1.42;;;0.68;;
823;SDS011;373;49.342;8.146;2023-11-19T14:22:38;3.83;;;0.88;;
823;SDS011;373;49.342;8.146;2023-11-19T14:25:05;2.22;;;1.05;;
823;SDS011;373;49.342;8.146;2023-11-19T14:27:37;3.55;;;0.73;;
823;SDS011;373;49.342;8.146;2023-11-19T14:30:05;2.33;;;0.70;;
823;SDS011;373;49.342;8.146;2023-11-19T14:32:35;2.30;;;0.80;;
823;SDS011;373;49.342;8.146;2023-11-19T14:35:04;2.28;;;0.75;;
823;SDS011;373;49.342;8.146;2023-11-19T14:37:31;2.92;;;1.17;;
823;SDS011;373;49.342;8.146;2023-11-19T14:39:59;2.08;;;0.77;;
823;SDS011;373;49.342;8.146;2023-11-19T14:42:28;2.47;;;0.82;;
823;SDS011;373;49.342;8.146;2023-11-19T14:44:55;1.73;;;0.65;;
823;SDS011;373;49.342;8.146;2023-11-19T14:47:23;1.83;;;0.80;;
823;SDS011;373;49.342;8.146;2023-11-19T14:49:50;5.97;;;1.10;;
823;SDS011;373;49.342;8.146;2023-11-19T14:52:18;5.43;;;1.27;;
823;SDS011;373;49.342;8.146;2023-11-19T14:54:45;3.50;;;1.10;;
823;SDS011;373;49.342;8.146;2023-11-19T14:57:13;2.28;;;1.40;;
823;SDS011;373;49.342;8.146;2023-11-19T14:59:40;1.98;;;0.70;;
823;SDS011;373;49.342;8.146;2023-11-19T15:02:07;4.15;;;0.93;;
823;SDS011;373;49.342;8.146;2023-11-19T15:04:35;4.30;;;1.05;;
823;SDS011;373;49.342;8.146;2023-11-19T15:07:03;2.55;;;1.00;;
823;SDS011;373;49.342;8.146;2023-11-19T15:09:31;2.65;;;1.00;;
823;SDS011;373;49.342;8.146;2023-11-19T15:11:58;2.42;;;0.90;;
823;SDS011;373;49.342;8.146;2023-11-19T15:14:27;2.35;;;1.00;;
823;SDS011;373;49.342;8.146;2023-11-19T15:16:55;4.38;;;1.10;;
823;SDS011;373;49.342;8.146;2023-11-19T15:19:23;3.60;;;1.40;;
823;SDS011;373;49.342;8.146;2023-11-19T15:21:50;3.75;;;1.00;;
823;SDS011;373;49.342;8.146;2023-11-19T15:24:20;1.65;;;0.93;;
823;SDS011;373;49.342;8.146;2023-11-19T15:26:48;3.72;;;0.88;;
823;SDS011;373;49.342;8.146;2023-11-19T15:29:15;3.63;;;1.13;;
823;SDS011;373;49.342;8.146;2023-11-19T15:31:42;2.17;;;1.10;;
823;SDS011;373;49.342;8.146;2023-11-19T15:34:11;3.08;;;1.00;;
823;SDS011;373;49.342;8.146;2023-11-19T15:36:41;5.05;;;1.13;;
823;SDS011;373;49.342;8.146;2023-11-19T15:39:11;4.35;;;1.13;;
823;SDS011;373;49.342;8.146;2023-11-19T15:41:39;4.32;;;1.48;;
823;SDS011;373;49.342;8.146;2023-11-19T15:44:09;3.05;;;1.10;;
823;SDS011;373;49.342;8.146;2023-11-19T15:46:36;4.07;;;1.63;;
823;SDS011;373;49.342;8.146;2023-11-19T15:49:06;3.00;;;1.50;;
823;SDS011;373;49.342;8.146;2023-11-19T15:51:33;2.03;;;0.90;;
823;SDS011;373;49.342;8.146;2023-11-19T15:54:00;3.10;;;1.00;;
823;SDS011;373;49.342;8.146;2023-11-19T15:56:27;4.32;;;1.23;;
823;SDS011;373;49.342;8.146;2023-11-19T15:58:56;3.10;;;1.33;;
823;SDS011;373;49.342;8.146;2023-11-19T16:01:24;3.92;;;1.05;;